Time;durP1;ratioP1;P1;durP2;ratioP2;P2;SDS_P1;SDS_P2;PMS_P1;PMS_P2;Temp;Humidity;BMP_temperature;BMP_pressure;BME280_temperature;BME280_humidity;BME280_pressure;Samples;Min_cycle;Max_cycle;Signal;HPM_P1;HPM_P2
2023/05/15 00:01:38;;;;;;;7.57;5.88;;;11.80;99.90;;;;;;5061048;28;20037;-59
2023/05/15 00:04:03;;;;;;;7.25;6.55;;;11.70;99.90;;;;;;5057524;28;20020;-59
2023/05/15 00:06:29;;;;;;;6.65;6.05;;;11.70;99.90;;;;;;5060976;28;20044;-52
2023/05/15 00:08:55;;;;;;;7.18;6.55;;;11.70;99.90;;;;;;5048537;28;20033;-58
2023/05/15 00:11:22;;;;;;;8.10;6.50;;;11.70;99.90;;;;;;5059436;28;20521;-59
2023/05/15 00:13:48;;;;;;;7.35;6.45;;;11.60;99.90;;;;;;5067337;28;20028;-56
2023/05/15 00:16:14;;;;;;;8.38;6.35;;;11.60;99.90;;;;;;5063624;28;20032;-59
2023/05/15 00:18:40;;;;;;;7.13;6.43;;;11.60;99.90;;;;;;5059557;28;20228;-59
2023/05/15 00:21:05;;;;;;;7.15;6.28;;;11.50;99.90;;;;;;5068713;28;20048;-59
2023/05/15 00:23:31;;;;;;;7.28;6.55;;;11.50;99.90;;;;;;5065622;28;20025;-54
2023/05/15 00:25:56;;;;;;;9.25;7.00;;;11.50;99.90;;;;;;5059595;28;20032;-56
2023/05/15 00:28:22;;;;;;;7.65;6.95;;;11.50;99.90;;;;;;5063791;28;20032;-57
2023/05/15 00:30:47;;;;;;;7.68;7.03;;;11.40;99.90;;;;;;5055355;28;20119;-54
2023/05/15 00:33:13;;;;;;;6.82;6.20;;;11.40;99.90;;;;;;5060969;28;20020;-59
2023/05/15 00:35:38;;;;;;;8.00;6.95;;;11.40;99.90;;;;;;5057101;28;20162;-54
2023/05/15 00:38:04;;;;;;;7.82;6.90;;;11.30;99.90;;;;;;5059122;28;20381;-57
2023/05/15 00:40:32;;;;;;;7.50;6.78;;;11.30;99.90;;;;;;5061879;28;20024;-57
2023/05/15 00:42:59;;;;;;;7.97;7.15;;;11.30;99.90;;;;;;5056935;28;20453;-58
2023/05/15 00:45:25;;;;;;;7.15;6.45;;;11.30;99.90;;;;;;5063508;28;20028;-58
2023/05/15 00:47:53;;;;;;;7.45;6.75;;;11.30;99.90;;;;;;5054863;28;20081;-58
2023/05/15 00:50:19;;;;;;;7.57;6.72;;;11.20;99.90;;;;;;5062227;28;20028;-59
2023/05/15 00:52:45;;;;;;;7.95;7.00;;;11.20;99.90;;;;;;5064634;28;20092;-58
2023/05/15 00:55:11;;;;;;;7.57;6.88;;;11.20;99.90;;;;;;5062275;28;20046;-59
2023/05/15 00:57:37;;;;;;;8.73;6.97;;;11.10;99.90;;;;;;5063684;28;20352;-58
2023/05/15 01:00:09;;;;;;;8.52;7.72;;;11.20;99.90;;;;;;5064148;28;20051;-57
2023/05/15 01:02:37;;;;;;;7.93;7.22;;;11.10;99.90;;;;;;5048506;28;20021;-59
2023/05/15 01:05:03;;;;;;;7.80;7.03;;;11.10;99.90;;;;;;5058901;28;20021;-60
2023/05/15 01:07:37;;;;;;;7.15;6.47;;;11.00;99.90;;;;;;5051635;28;20033;-58
2023/05/15 01:10:03;;;;;;;7.72;6.95;;;11.00;99.90;;;;;;5047835;28;20491;-59
2023/05/15 01:12:30;;;;;;;11.40;7.18;;;11.00;99.90;;;;;;5058485;28;20360;-57
2023/05/15 01:14:56;;;;;;;7.72;7.05;;;11.00;99.90;;;;;;5058815;28;20412;-59
2023/05/15 01:17:21;;;;;;;7.18;6.47;;;10.90;99.90;;;;;;5056308;28;20196;-59
2023/05/15 01:19:51;;;;;;;9.07;7.40;;;10.90;99.90;;;;;;5056211;28;20495;-59
2023/05/15 01:22:35;;;;;;;7.85;7.15;;;10.90;99.90;;;;;;5053677;28;20017;-56
2023/05/15 01:25:19;;;;;;;9.93;7.20;;;10.90;99.90;;;;;;5042121;28;20020;-58
2023/05/15 01:27:50;;;;;;;7.82;7.13;;;10.80;99.90;;;;;;5053457;28;20017;-56
2023/05/15 01:30:15;;;;;;;8.50;6.93;;;10.80;99.90;;;;;;5053665;28;20033;-55
2023/05/15 01:33:05;;;;;;;8.75;7.85;;;10.80;99.90;;;;;;5059839;28;20483;-53
2023/05/15 01:35:49;;;;;;;9.45;8.45;;;10.70;99.90;;;;;;5050440;28;20059;-54
2023/05/15 01:38:44;;;;;;;8.05;7.22;;;10.70;99.90;;;;;;5049585;28;20491;-58
2023/05/15 01:41:27;;;;;;;7.43;6.57;;;10.70;99.90;;;;;;5052068;28;20048;-58
2023/05/15 01:44:01;;;;;;;9.95;8.02;;;10.70;99.90;;;;;;5051216;28;20013;-57
2023/05/15 01:46:29;;;;;;;8.32;7.50;;;10.60;99.90;;;;;;5046820;28;20032;-58
2023/05/15 01:48:59;;;;;;;9.05;7.82;;;10.60;99.90;;;;;;5055939;28;20029;-59
2023/05/15 01:51:26;;;;;;;9.23;7.10;;;10.50;99.90;;;;;;5055697;28;20754;-59
2023/05/15 01:53:52;;;;;;;8.55;7.75;;;10.50;99.90;;;;;;5061720;28;20351;-59
2023/05/15 01:56:18;;;;;;;9.07;8.18;;;10.50;99.90;;;;;;5055027;28;20025;-57
2023/05/15 01:58:46;;;;;;;8.48;7.65;;;10.40;99.90;;;;;;5046803;28;20025;-58
2023/05/15 02:01:13;;;;;;;8.60;7.75;;;10.30;99.90;;;;;;5063982;23;20048;-49
2023/05/15 02:03:40;;;;;;;10.93;8.50;;;10.40;99.90;;;;;;5037376;28;20094;-51
2023/05/15 02:06:06;;;;;;;8.45;6.68;;;10.40;99.90;;;;;;5030831;28;20016;-53
2023/05/15 02:08:33;;;;;;;9.77;7.32;;;10.30;99.90;;;;;;5033471;28;20033;-49
2023/05/15 02:11:00;;;;;;;9.27;7.05;;;10.30;99.90;;;;;;5042811;28;20028;-52
2023/05/15 02:13:27;;;;;;;9.45;8.30;;;10.30;99.90;;;;;;5055530;28;20807;-50
2023/05/15 02:15:53;;;;;;;8.73;7.85;;;10.20;99.90;;;;;;5057244;28;20490;-49
2023/05/15 02:18:18;;;;;;;8.10;7.40;;;10.20;99.90;;;;;;5053916;28;20033;-50
2023/05/15 02:20:44;;;;;;;9.57;8.50;;;10.20;99.90;;;;;;5051583;28;20493;-53
2023/05/15 02:23:10;;;;;;;8.57;7.68;;;10.20;99.90;;;;;;5058898;28;20067;-49
2023/05/15 02:26:00;;;;;;;8.48;7.68;;;10.20;99.90;;;;;;5056559;28;20029;-49
2023/05/15 02:28:37;;;;;;;12.07;8.85;;;10.10;99.90;;;;;;5055198;28;20032;-49
2023/05/15 02:31:16;;;;;;;8.80;7.50;;;10.10;99.90;;;;;;5053901;28;20121;-49
2023/05/15 02:33:54;;;;;;;9.18;8.27;;;10.10;99.90;;;;;;5053613;28;20267;-49
2023/05/15 02:36:24;;;;;;;9.40;8.43;;;10.10;99.90;;;;;;5048760;28;20148;-49
2023/05/15 02:38:54;;;;;;;12.75;8.70;;;10.00;99.90;;;;;;5056368;28;20025;-50
2023/05/15 02:41:21;;;;;;;9.20;8.30;;;10.00;99.90;;;;;;5058205;28;20402;-52
2023/05/15 02:43:50;;;;;;;9.90;8.95;;;10.00;99.90;;;;;;5062141;28;20500;-50
2023/05/15 02:46:18;;;;;;;9.57;8.68;;;10.00;99.90;;;;;;5057936;28;20028;-53
2023/05/15 02:48:44;;;;;;;10.63;9.23;;;10.00;99.90;;;;;;5054915;28;20028;-52
2023/05/15 02:51:10;;;;;;;11.75;10.25;;;10.00;99.90;;;;;;5058573;28;20196;-49
2023/05/15 02:53:42;;;;;;;12.48;10.38;;;10.00;99.90;;;;;;5056049;28;20040;-49
2023/05/15 02:56:08;;;;;;;11.50;9.25;;;10.00;99.90;;;;;;5062464;28;20028;-51
2023/05/15 02:58:34;;;;;;;9.52;8.52;;;10.00;99.90;;;;;;5054347;28;20112;-51
2023/05/15 03:01:07;;;;;;;10.10;9.10;;;9.90;99.90;;;;;;5055715;28;20028;-51
2023/05/15 03:03:32;;;;;;;12.30;9.10;;;9.90;99.90;;;;;;5056454;28;20025;-49
2023/05/15 03:05:59;;;;;;;9.65;8.73;;;9.90;99.90;;;;;;5036426;28;20013;-50
2023/05/15 03:08:25;;;;;;;10.55;9.55;;;9.90;99.90;;;;;;5032041;28;20021;-49
2023/05/15 03:10:59;;;;;;;10.98;10.02;;;9.90;99.90;;;;;;5055017;28;20445;-51
2023/05/15 03:13:25;;;;;;;11.43;9.05;;;9.90;99.90;;;;;;5053725;28;20037;-50
2023/05/15 03:15:51;;;;;;;13.50;10.40;;;9.90;99.90;;;;;;5055126;28;20094;-49
2023/05/15 03:18:18;;;;;;;10.95;9.70;;;9.80;99.90;;;;;;5054155;28;20416;-50
2023/05/15 03:20:43;;;;;;;11.05;10.05;;;9.80;99.90;;;;;;5054890;28;20064;-51
2023/05/15 03:23:09;;;;;;;11.02;9.93;;;9.70;99.90;;;;;;5056045;28;20035;-51
2023/05/15 03:25:35;;;;;;;11.93;10.32;;;9.70;99.90;;;;;;5053926;28;20390;-52
2023/05/15 03:28:00;;;;;;;11.43;9.13;;;9.70;99.90;;;;;;5059242;28;20036;-50
2023/05/15 03:30:26;;;;;;;11.88;10.68;;;9.60;99.90;;;;;;5052561;28;20067;-52
2023/05/15 03:32:51;;;;;;;11.38;10.27;;;9.70;99.90;;;;;;5045535;28;20108;-50
2023/05/15 03:35:17;;;;;;;11.65;10.18;;;9.60;99.90;;;;;;5051656;28;20721;-52
2023/05/15 03:37:43;;;;;;;11.60;10.40;;;9.60;99.90;;;;;;5051527;28;20771;-49
2023/05/15 03:40:08;;;;;;;12.23;11.02;;;9.60;99.90;;;;;;5039635;28;20485;-52
2023/05/15 03:42:34;;;;;;;11.57;10.45;;;9.70;99.90;;;;;;5053577;28;20043;-50
2023/05/15 03:45:00;;;;;;;12.27;11.18;;;9.70;99.90;;;;;;5044341;28;20090;-52
2023/05/15 03:47:25;;;;;;;13.57;11.43;;;9.60;99.90;;;;;;5048750;28;20025;-49
2023/05/15 03:49:51;;;;;;;12.48;11.15;;;9.60;99.90;;;;;;5055137;28;20364;-49
2023/05/15 03:52:16;;;;;;;13.52;12.25;;;9.50;99.90;;;;;;5055915;28;20475;-49
2023/05/15 03:54:42;;;;;;;12.68;11.30;;;9.60;99.90;;;;;;5058884;28;20062;-50
2023/05/15 03:57:08;;;;;;;12.13;10.85;;;9.50;99.90;;;;;;5064168;28;20012;-50
2023/05/15 03:59:33;;;;;;;13.27;10.60;;;9.50;99.90;;;;;;5057306;28;20033;-50
2023/05/15 04:01:59;;;;;;;14.30;10.38;;;9.50;99.90;;;;;;5063436;28;20056;-50
2023/05/15 04:04:24;;;;;;;11.05;9.90;;;9.50;99.90;;;;;;5056894;28;20093;-54
2023/05/15 04:06:50;;;;;;;11.20;10.10;;;9.50;99.90;;;;;;5063851;28;20050;-50
2023/05/15 04:09:16;;;;;;;11.20;10.10;;;9.50;99.90;;;;;;5059089;28;20406;-50
2023/05/15 04:11:41;;;;;;;12.00;10.88;;;9.50;99.90;;;;;;5057636;28;20025;-49
2023/05/15 04:14:07;;;;;;;11.95;10.73;;;9.60;99.90;;;;;;5060547;28;20031;-50
2023/05/15 04:16:33;;;;;;;12.52;11.32;;;9.60;99.90;;;;;;5058756;28;20024;-52
2023/05/15 04:18:59;;;;;;;10.65;9.52;;;9.50;99.90;;;;;;5041765;28;20082;-49
2023/05/15 04:21:25;;;;;;;12.73;11.40;;;9.60;99.90;;;;;;5060970;28;20021;-50
2023/05/15 04:23:50;;;;;;;13.27;11.10;;;9.60;99.90;;;;;;5053745;28;20036;-51
2023/05/15 04:26:16;;;;;;;11.55;10.45;;;9.60;99.90;;;;;;5059885;28;20040;-54
2023/05/15 04:28:41;;;;;;;11.90;10.80;;;9.60;99.90;;;;;;5057715;28;20021;-52
2023/05/15 04:31:07;;;;;;;12.43;10.15;;;9.70;99.90;;;;;;5057577;28;20032;-53
2023/05/15 04:33:32;;;;;;;11.88;10.68;;;9.70;99.90;;;;;;5058888;28;20040;-50
2023/05/15 04:35:58;;;;;;;13.80;10.70;;;9.70;99.90;;;;;;5059468;28;20394;-50
2023/05/15 04:38:24;;;;;;;11.52;9.65;;;9.80;99.90;;;;;;5054876;28;20029;-51
2023/05/15 04:40:50;;;;;;;11.93;10.75;;;9.80;99.90;;;;;;5058005;28;20526;-50
2023/05/15 04:43:15;;;;;;;10.15;9.15;;;9.90;99.90;;;;;;5051221;28;20032;-51
2023/05/15 04:45:41;;;;;;;10.07;9.02;;;9.90;99.90;;;;;;5058449;28;20021;-51
2023/05/15 04:48:06;;;;;;;10.70;9.40;;;9.90;99.90;;;;;;5054173;28;20414;-50
2023/05/15 04:50:32;;;;;;;9.50;8.57;;;10.00;99.90;;;;;;5058847;28;20057;-51
2023/05/15 04:52:57;;;;;;;12.48;9.32;;;10.00;99.90;;;;;;5058506;28;20055;-50
2023/05/15 04:55:23;;;;;;;9.75;8.75;;;10.10;99.90;;;;;;5057168;28;20037;-50
2023/05/15 04:57:48;;;;;;;11.45;10.27;;;10.10;99.90;;;;;;5055153;28;20060;-51
2023/05/15 05:00:15;;;;;;;10.63;9.38;;;10.20;99.90;;;;;;5048617;28;20032;-49
2023/05/15 05:02:42;;;;;;;12.32;9.27;;;10.20;99.90;;;;;;5056574;28;20021;-50
2023/05/15 05:05:08;;;;;;;10.93;9.18;;;10.30;99.90;;;;;;5058520;28;20271;-54
2023/05/15 05:07:34;;;;;;;12.05;8.75;;;10.40;99.90;;;;;;5056943;28;20517;-50
2023/05/15 05:10:00;;;;;;;10.77;8.98;;;10.40;99.90;;;;;;5054643;28;20021;-50
2023/05/15 05:12:25;;;;;;;10.00;8.93;;;10.50;99.90;;;;;;5058922;28;20033;-51
2023/05/15 05:14:51;;;;;;;10.20;9.30;;;10.60;99.90;;;;;;5057624;28;20025;-52
2023/05/15 05:17:17;;;;;;;11.13;10.00;;;10.70;99.90;;;;;;5055789;28;20108;-49
2023/05/15 05:19:42;;;;;;;11.20;9.43;;;10.80;99.90;;;;;;5051261;28;20100;-49
2023/05/15 05:22:08;;;;;;;9.68;8.57;;;10.80;99.90;;;;;;5055836;28;20059;-51
2023/05/15 05:24:36;;;;;;;11.60;9.55;;;10.90;99.90;;;;;;5050566;28;20034;-49
2023/05/15 05:27:02;;;;;;;9.80;8.23;;;11.00;99.90;;;;;;5056214;28;20039;-51
2023/05/15 05:29:29;;;;;;;11.23;8.27;;;11.10;99.90;;;;;;5057195;28;20487;-50
2023/05/15 05:31:55;;;;;;;11.48;8.75;;;11.20;99.90;;;;;;5055308;28;20119;-50
2023/05/15 05:34:21;;;;;;;9.63;8.45;;;11.30;99.90;;;;;;5041032;28;20613;-50
2023/05/15 05:36:46;;;;;;;10.15;7.63;;;11.40;99.90;;;;;;5055635;28;20497;-50
2023/05/15 05:39:12;;;;;;;9.07;8.18;;;11.50;99.90;;;;;;5058519;28;20395;-51
2023/05/15 05:41:38;;;;;;;10.73;8.52;;;11.60;99.90;;;;;;5058256;28;20333;-50
2023/05/15 05:44:03;;;;;;;9.18;7.05;;;11.70;99.90;;;;;;5062775;28;20040;-49
2023/05/15 05:46:29;;;;;;;16.45;7.22;;;11.80;99.90;;;;;;5054439;28;20509;-51
2023/05/15 05:48:54;;;;;;;10.00;7.30;;;12.00;99.90;;;;;;5048828;28;20029;-52
2023/05/15 05:51:20;;;;;;;8.93;6.75;;;12.10;99.90;;;;;;5058443;28;20025;-50
2023/05/15 05:53:46;;;;;;;9.80;6.97;;;12.20;99.90;;;;;;5056901;28;20036;-52
2023/05/15 05:56:11;;;;;;;8.05;6.68;;;12.30;99.90;;;;;;5058318;28;20024;-52
2023/05/15 05:58:37;;;;;;;8.15;6.80;;;12.50;99.90;;;;;;5057819;28;20048;-50
2023/05/15 06:01:04;;;;;;;9.10;7.35;;;12.60;99.90;;;;;;5038982;28;20036;-51
2023/05/15 06:03:30;;;;;;;7.93;6.85;;;12.80;99.90;;;;;;5057661;28;20558;-51
2023/05/15 06:05:56;;;;;;;8.30;6.75;;;13.00;99.90;;;;;;5052824;28;20032;-50
2023/05/15 06:08:21;;;;;;;7.25;5.80;;;13.20;99.90;;;;;;5057757;28;20421;-50
2023/05/15 06:10:47;;;;;;;7.35;5.28;;;13.40;99.90;;;;;;5048722;28;20034;-52
2023/05/15 06:13:13;;;;;;;6.95;5.65;;;13.70;99.90;;;;;;5056249;28;20027;-54
2023/05/15 06:15:39;;;;;;;6.05;5.53;;;13.90;99.90;;;;;;5045940;28;20633;-52
2023/05/15 06:18:05;;;;;;;6.47;4.70;;;14.10;99.90;;;;;;5056207;28;20039;-52
2023/05/15 06:20:31;;;;;;;5.00;4.30;;;14.40;99.90;;;;;;5058913;28;20028;-50
2023/05/15 06:22:56;;;;;;;5.40;4.75;;;14.60;99.90;;;;;;5055426;28;20025;-55
2023/05/15 06:25:22;;;;;;;7.82;4.65;;;14.90;99.90;;;;;;5059389;28;20025;-51
2023/05/15 06:27:48;;;;;;;6.15;4.38;;;15.20;99.90;;;;;;5056609;28;20093;-51
2023/05/15 06:30:13;;;;;;;7.35;4.47;;;15.40;99.90;;;;;;5048622;28;20108;-51
2023/05/15 06:32:40;;;;;;;5.75;4.47;;;15.60;99.90;;;;;;5053957;28;20083;-53
2023/05/15 06:35:07;;;;;;;4.97;4.18;;;15.90;99.90;;;;;;5052746;28;20447;-52
2023/05/15 06:37:32;;;;;;;5.20;4.00;;;16.00;99.90;;;;;;5059079;28;20288;-52
2023/05/15 06:39:58;;;;;;;4.35;3.95;;;16.20;99.90;;;;;;5037282;28;20044;-51
2023/05/15 06:42:23;;;;;;;6.60;4.05;;;16.40;99.90;;;;;;5058234;28;20043;-51
2023/05/15 06:44:49;;;;;;;5.95;4.00;;;16.60;99.90;;;;;;5056382;28;20270;-50
2023/05/15 06:47:15;;;;;;;6.18;3.95;;;16.80;99.90;;;;;;5053618;28;20446;-51
2023/05/15 06:49:41;;;;;;;4.18;3.65;;;17.00;99.90;;;;;;5059744;28;20031;-53
2023/05/15 06:52:06;;;;;;;4.03;3.60;;;17.10;99.90;;;;;;5054010;28;20096;-51
2023/05/15 06:54:32;;;;;;;4.30;3.10;;;17.20;99.90;;;;;;5059230;28;20060;-50
2023/05/15 06:56:57;;;;;;;4.47;3.45;;;17.20;99.90;;;;;;5054805;28;20087;-54
2023/05/15 06:59:23;;;;;;;4.53;2.95;;;17.10;99.90;;;;;;5058506;28;20035;-50
2023/05/15 07:01:49;;;;;;;3.15;2.85;;;17.20;99.90;;;;;;5055451;28;20037;-51
2023/05/15 07:04:14;;;;;;;3.38;3.08;;;17.40;99.90;;;;;;5047652;28;20021;-50
2023/05/15 07:06:40;;;;;;;3.67;3.10;;;17.70;99.90;;;;;;5058852;28;20100;-51
2023/05/15 07:09:05;;;;;;;3.40;2.85;;;17.90;99.90;;;;;;5052424;28;20017;-52
2023/05/15 07:11:32;;;;;;;6.95;3.30;;;18.00;99.70;;;;;;5046366;28;20264;-51
2023/05/15 07:13:58;;;;;;;4.65;3.80;;;18.20;98.70;;;;;;5047332;28;20436;-52
2023/05/15 07:16:23;;;;;;;3.13;2.90;;;18.50;99.90;;;;;;5057514;28;20108;-58
2023/05/15 07:18:49;;;;;;;3.60;3.13;;;18.70;99.40;;;;;;5054342;28;20104;-53
2023/05/15 07:21:14;;;;;;;3.78;3.20;;;18.90;99.90;;;;;;5059208;28;20499;-51
2023/05/15 07:23:40;;;;;;;3.70;3.00;;;19.10;99.10;;;;;;5046025;28;20623;-55
2023/05/15 07:26:06;;;;;;;2.95;2.70;;;19.10;94.90;;;;;;5061996;28;20021;-50
2023/05/15 07:28:31;;;;;;;4.10;2.83;;;19.30;97.40;;;;;;5053300;28;20028;-54
2023/05/15 07:30:57;;;;;;;2.90;2.60;;;19.40;96.00;;;;;;5060784;28;20086;-52
2023/05/15 07:33:22;;;;;;;3.20;2.90;;;19.50;94.60;;;;;;5057261;28;20190;-54
2023/05/15 07:35:49;;;;;;;4.68;3.10;;;19.80;95.00;;;;;;5053476;28;20033;-53
2023/05/15 07:38:15;;;;;;;4.03;3.20;;;20.00;94.30;;;;;;5058806;28;20040;-55
2023/05/15 07:40:40;;;;;;;3.00;2.72;;;20.00;93.70;;;;;;5052329;28;20013;-52
2023/05/15 07:43:06;;;;;;;5.53;2.80;;;20.20;90.80;;;;;;5042588;28;20021;-52
2023/05/15 07:45:31;;;;;;;3.97;2.83;;;20.40;90.90;;;;;;5053299;28;20024;-54
2023/05/15 07:47:57;;;;;;;4.60;2.55;;;20.40;90.50;;;;;;5046562;28;20021;-51
2023/05/15 07:50:23;;;;;;;3.55;3.03;;;20.60;91.70;;;;;;5053892;28;20078;-51
2023/05/15 07:52:48;;;;;;;3.63;2.40;;;20.70;90.10;;;;;;5051224;28;20036;-52
2023/05/15 07:55:14;;;;;;;3.03;2.60;;;20.70;88.70;;;;;;5058284;28;20394;-54
2023/05/15 07:57:39;;;;;;;3.95;2.63;;;20.80;88.00;;;;;;5053066;28;20113;-51
2023/05/15 08:00:12;;;;;;;4.20;2.67;;;20.90;87.20;;;;;;5039783;28;20032;-51
2023/05/15 08:02:38;;;;;;;4.55;3.00;;;20.90;90.30;;;;;;5046515;28;20029;-53
2023/05/15 08:05:04;;;;;;;6.28;2.88;;;21.20;90.20;;;;;;5060666;28;20036;-54
2023/05/15 08:07:34;;;;;;;2.90;2.70;;;21.30;86.70;;;;;;5041109;28;20013;-55
2023/05/15 08:09:59;;;;;;;3.25;2.95;;;21.40;87.20;;;;;;5052711;28;20444;-52
2023/05/15 08:12:25;;;;;;;2.97;2.78;;;21.40;86.30;;;;;;5047539;28;20099;-51
2023/05/15 08:14:52;;;;;;;6.25;3.17;;;21.50;86.50;;;;;;5055980;28;20051;-51
2023/05/15 08:17:19;;;;;;;4.55;2.50;;;21.70;88.30;;;;;;5056223;28;20669;-51
2023/05/15 08:19:45;;;;;;;2.42;2.13;;;21.80;84.90;;;;;;5054824;28;20020;-52
2023/05/15 08:22:11;;;;;;;9.27;2.10;;;21.90;87.20;;;;;;5050876;28;20028;-53
2023/05/15 08:24:39;;;;;;;3.30;2.22;;;22.10;83.50;;;;;;5048146;28;20439;-54
2023/05/15 08:27:08;;;;;;;3.08;2.60;;;22.00;82.10;;;;;;5057098;28;20032;-51
2023/05/15 08:29:37;;;;;;;3.88;2.58;;;21.90;81.10;;;;;;5041499;28;20048;-52
2023/05/15 08:32:04;;;;;;;2.30;2.10;;;22.10;81.80;;;;;;5058735;28;20029;-55
2023/05/15 08:34:29;;;;;;;4.55;2.40;;;22.30;81.00;;;;;;5059792;28;20060;-53
2023/05/15 08:36:56;;;;;;;2.60;2.20;;;22.30;80.40;;;;;;5057459;28;20060;-53
2023/05/15 08:39:21;;;;;;;2.75;2.50;;;22.40;81.50;;;;;;5059561;28;20024;-50
2023/05/15 08:42:10;;;;;;;2.10;1.85;;;22.50;78.30;;;;;;5058645;28;20035;-49
2023/05/15 08:44:36;;;;;;;2.53;2.33;;;22.70;80.50;;;;;;5011197;28;20033;-53
2023/05/15 08:47:03;;;;;;;3.97;2.58;;;22.60;79.20;;;;;;5058893;28;20513;-49
2023/05/15 08:49:57;;;;;;;2.45;2.25;;;22.40;77.10;;;;;;5059780;28;20398;-49
2023/05/15 08:52:24;;;;;;;4.40;1.90;;;22.50;77.20;;;;;;5054804;28;20013;-52
2023/05/15 08:54:51;;;;;;;2.13;2.03;;;22.60;76.40;;;;;;5044200;28;20055;-52
2023/05/15 08:57:17;;;;;;;2.47;2.10;;;22.40;77.60;;;;;;5055829;28;20025;-52
2023/05/15 08:59:42;;;;;;;2.50;2.28;;;22.50;76.10;;;;;;5061871;28;20550;-55
2023/05/15 09:02:08;;;;;;;2.42;2.22;;;22.40;75.80;;;;;;5056030;28;20048;-51
2023/05/15 09:04:35;;;;;;;3.13;2.10;;;22.50;76.60;;;;;;5058502;28;20036;-50
2023/05/15 09:07:02;;;;;;;5.30;2.42;;;22.40;75.30;;;;;;5047409;28;20113;-51
2023/05/15 09:09:31;;;;;;;3.38;2.30;;;22.60;74.70;;;;;;5044309;28;20358;-51
2023/05/15 09:11:58;;;;;;;2.28;2.08;;;22.60;73.70;;;;;;5042763;28;20044;-52
2023/05/15 09:14:23;;;;;;;4.28;2.10;;;22.60;74.20;;;;;;5062000;28;20051;-50
2023/05/15 09:16:52;;;;;;;2.70;2.45;;;22.20;72.10;;;;;;5055670;28;20479;-51
2023/05/15 09:19:19;;;;;;;3.75;2.13;;;22.10;73.90;;;;;;5047732;28;20371;-51
2023/05/15 09:21:45;;;;;;;3.17;2.22;;;22.40;76.30;;;;;;5049057;28;20111;-52
2023/05/15 09:24:18;;;;;;;2.72;2.13;;;22.50;74.20;;;;;;5058044;28;20120;-52
2023/05/15 09:26:46;;;;;;;3.15;2.00;;;22.70;73.60;;;;;;5055676;28;20025;-50
2023/05/15 09:29:15;;;;;;;2.90;2.55;;;22.90;73.60;;;;;;5055450;28;20013;-52
2023/05/15 09:31:41;;;;;;;3.35;2.20;;;22.60;74.20;;;;;;5050918;28;20068;-51
2023/05/15 09:34:09;;;;;;;4.43;2.13;;;22.50;73.80;;;;;;5056033;28;20467;-52
2023/05/15 09:36:34;;;;;;;3.08;2.75;;;22.40;75.00;;;;;;5054992;28;20036;-50
2023/05/15 09:39:00;;;;;;;3.28;2.97;;;22.40;76.10;;;;;;5055340;28;20017;-50
2023/05/15 09:41:27;;;;;;;3.10;2.50;;;22.30;74.10;;;;;;5044141;28;20085;-53
2023/05/15 09:43:55;;;;;;;5.18;2.75;;;22.30;75.50;;;;;;5057013;28;20017;-51
2023/05/15 09:46:24;;;;;;;2.30;2.10;;;22.40;73.90;;;;;;5050713;28;20446;-53
2023/05/15 09:48:54;;;;;;;3.17;2.30;;;22.30;73.90;;;;;;5057939;28;20039;-50
2023/05/15 09:51:20;;;;;;;3.28;2.22;;;22.50;73.10;;;;;;5045128;28;20017;-54
2023/05/15 09:53:53;;;;;;;2.55;2.35;;;22.30;73.00;;;;;;5062281;28;20487;-57
2023/05/15 09:56:18;;;;;;;3.58;2.40;;;22.30;72.30;;;;;;5058503;28;20032;-52
2023/05/15 09:58:58;;;;;;;3.00;2.50;;;21.90;70.90;;;;;;5063914;28;20024;-51
2023/05/15 10:01:24;;;;;;;3.53;2.20;;;21.90;74.70;;;;;;5045645;28;20356;-53
2023/05/15 10:04:00;;;;;;;2.85;2.40;;;21.90;73.20;;;;;;5056422;28;20431;-50
2023/05/15 10:06:26;;;;;;;2.53;2.33;;;21.80;72.80;;;;;;5046026;28;20502;-53
2023/05/15 10:08:55;;;;;;;3.40;2.70;;;21.90;73.60;;;;;;5056821;28;20033;-55
2023/05/15 10:11:22;;;;;;;3.30;2.35;;;21.80;73.90;;;;;;5057661;28;20017;-54
2023/05/15 10:13:48;;;;;;;4.28;2.60;;;21.90;74.40;;;;;;5056910;28;20067;-52
2023/05/15 10:16:14;;;;;;;2.72;2.22;;;22.00;74.00;;;;;;5055622;28;20059;-52
2023/05/15 10:18:40;;;;;;;3.75;2.33;;;22.10;74.30;;;;;;5058376;28;20063;-54
2023/05/15 10:21:10;;;;;;;3.22;2.33;;;22.10;73.30;;;;;;5056615;28;20047;-50
2023/05/15 10:23:40;;;;;;;3.13;2.50;;;22.10;73.20;;;;;;5055916;28;20052;-54
2023/05/15 10:26:29;;;;;;;3.33;2.63;;;22.10;74.50;;;;;;5050591;28;20053;-50
2023/05/15 10:28:56;;;;;;;7.28;2.42;;;22.30;71.40;;;;;;5038078;28;20025;-50
2023/05/15 10:31:23;;;;;;;5.63;3.13;;;22.50;73.60;;;;;;5050870;28;20028;-49
2023/05/15 10:33:50;;;;;;;2.90;2.60;;;22.50;71.90;;;;;;5060008;28;20597;-50
2023/05/15 10:36:16;;;;;;;2.40;2.20;;;22.50;71.30;;;;;;5054432;28;20118;-51
2023/05/15 10:38:43;;;;;;;2.78;2.58;;;22.40;71.70;;;;;;5040385;28;20062;-50
2023/05/15 10:41:11;;;;;;;3.58;2.88;;;22.30;70.00;;;;;;5061950;28;20020;-53
2023/05/15 10:43:37;;;;;;;3.92;2.67;;;22.20;70.80;;;;;;5045399;28;20509;-50
2023/05/15 10:46:04;;;;;;;3.80;2.53;;;22.30;72.00;;;;;;5055080;28;20021;-51
2023/05/15 10:48:30;;;;;;;2.63;2.22;;;22.20;71.20;;;;;;5058576;28;20078;-53
2023/05/15 10:50:59;;;;;;;4.13;2.50;;;22.20;72.10;;;;;;5049067;28;20021;-49
2023/05/15 10:53:25;;;;;;;2.40;2.20;;;22.30;69.60;;;;;;5047774;28;20028;-49
2023/05/15 10:55:51;;;;;;;2.88;2.42;;;22.50;71.40;;;;;;5039145;28;20032;-50
2023/05/15 10:58:16;;;;;;;5.20;2.47;;;22.40;69.70;;;;;;5054239;28;20439;-52
2023/05/15 11:00:43;;;;;;;3.75;2.50;;;22.60;71.40;;;;;;5055734;28;20021;-50
2023/05/15 11:03:13;;;;;;;3.85;2.75;;;22.70;70.80;;;;;;5052353;28;20036;-50
2023/05/15 11:06:08;;;;;;;5.97;2.67;;;22.80;69.30;;;;;;5049534;28;20039;-52
2023/05/15 11:08:35;;;;;;;3.10;2.28;;;22.80;70.00;;;;;;5043964;28;20108;-50
2023/05/15 11:11:01;;;;;;;2.33;2.13;;;22.70;70.30;;;;;;5058494;28;20043;-50
2023/05/15 11:13:46;;;;;;;3.22;2.50;;;22.70;72.30;;;;;;5054679;28;20497;-52
2023/05/15 11:16:13;;;;;;;3.13;2.13;;;22.90;69.00;;;;;;5055312;28;20075;-53
2023/05/15 11:18:38;;;;;;;3.10;2.15;;;23.10;70.10;;;;;;5056405;28;20029;-51
2023/05/15 11:21:08;;;;;;;2.47;2.25;;;23.20;66.80;;;;;;5056709;28;20386;-53
2023/05/15 11:23:39;;;;;;;2.60;2.22;;;22.80;65.60;;;;;;5056982;28;20100;-56
2023/05/15 11:26:04;;;;;;;2.47;2.28;;;22.90;67.10;;;;;;5057028;28;20013;-51
2023/05/15 11:28:39;;;;;;;4.18;2.72;;;22.80;69.80;;;;;;5056538;28;20024;-54
2023/05/15 11:31:05;;;;;;;3.08;2.80;;;22.80;66.90;;;;;;5056658;28;20191;-53
2023/05/15 11:33:31;;;;;;;4.53;2.67;;;22.70;65.40;;;;;;5053674;28;20029;-52
2023/05/15 11:35:58;;;;;;;5.45;2.60;;;22.70;67.60;;;;;;5058146;28;20517;-51
2023/05/15 11:38:25;;;;;;;2.35;2.15;;;22.60;68.70;;;;;;5054043;28;20434;-53
2023/05/15 11:40:52;;;;;;;4.00;2.53;;;22.50;67.30;;;;;;5058307;28;20099;-53
2023/05/15 11:43:22;;;;;;;3.97;2.35;;;22.30;68.10;;;;;;5055196;28;20021;-57
2023/05/15 11:45:54;;;;;;;4.22;2.53;;;22.20;69.30;;;;;;5053089;28;20028;-54
2023/05/15 11:48:21;;;;;;;5.05;2.53;;;22.00;69.30;;;;;;5037336;28;20025;-51
2023/05/15 11:50:47;;;;;;;4.38;2.88;;;21.90;68.60;;;;;;5052711;28;20516;-54
2023/05/15 11:53:14;;;;;;;3.17;2.60;;;21.90;69.30;;;;;;5053123;28;20037;-55
2023/05/15 11:55:42;;;;;;;3.08;2.30;;;21.90;71.00;;;;;;5055704;28;20178;-53
2023/05/15 11:58:12;;;;;;;4.30;2.65;;;21.70;69.10;;;;;;5045856;28;20038;-54
2023/05/15 12:00:39;;;;;;;2.72;2.47;;;21.70;69.90;;;;;;5049124;28;20359;-55
2023/05/15 12:03:04;;;;;;;3.13;2.42;;;21.60;69.20;;;;;;5051094;28;20026;-51
2023/05/15 12:05:30;;;;;;;3.95;2.78;;;21.50;69.20;;;;;;5061259;28;20021;-51
2023/05/15 12:07:57;;;;;;;3.00;2.63;;;21.40;69.50;;;;;;5056716;28;20115;-52
2023/05/15 12:10:22;;;;;;;2.92;2.25;;;21.30;69.90;;;;;;5039856;28;20025;-54
2023/05/15 12:12:48;;;;;;;2.88;2.50;;;21.30;69.10;;;;;;5062058;28;20040;-53
2023/05/15 12:15:16;;;;;;;2.20;1.98;;;21.30;69.40;;;;;;5057014;28;20115;-54
2023/05/15 12:17:43;;;;;;;3.13;2.47;;;21.30;69.80;;;;;;5056424;28;20036;-51
2023/05/15 12:20:11;;;;;;;3.47;2.50;;;21.30;72.90;;;;;;5053786;28;20065;-51
2023/05/15 12:22:41;;;;;;;3.72;2.22;;;21.30;70.30;;;;;;5044685;28;20480;-52
2023/05/15 12:25:10;;;;;;;6.45;2.40;;;21.40;71.70;;;;;;5059494;28;20386;-52
2023/05/15 12:27:36;;;;;;;2.80;2.60;;;21.40;69.90;;;;;;5035331;28;20526;-50
2023/05/15 12:30:04;;;;;;;4.75;2.20;;;21.30;70.10;;;;;;5056169;28;20048;-53
2023/05/15 12:32:32;;;;;;;3.30;2.78;;;21.30;71.00;;;;;;5059186;28;20057;-50
2023/05/15 12:34:58;;;;;;;4.18;2.58;;;21.40;71.00;;;;;;5060810;28;20375;-50
2023/05/15 12:37:24;;;;;;;3.53;1.67;;;21.40;72.00;;;;;;5058213;28;20025;-54
2023/05/15 12:39:57;;;;;;;6.10;2.90;;;21.40;69.80;;;;;;5060448;28;20027;-52
2023/05/15 12:42:23;;;;;;;2.75;2.33;;;21.40;69.50;;;;;;5056829;28;20549;-53
2023/05/15 12:44:51;;;;;;;3.38;2.63;;;21.30;70.40;;;;;;5059865;28;20138;-55
2023/05/15 12:47:25;;;;;;;6.05;3.50;;;21.10;73.10;;;;;;5058598;28;20368;-53